メインページ
METAR-TAF:

METAR-TAF

空港 :

バトルクリーク, ミシガン州, アメリカ合衆国

緯度: 42-18-45N, 経度: 085-14-27W, 海抜: 290m

現時点の気象観測

当レポートは59分前の16:53(UTC)に作成
の風 4kt
気温 26°C
湿度 79%
気圧 1015 hPa
視程: 16.1km
高度1400ftの千切れ雲あり
高度2200ftの千切れ雲あり
高度2900ftの千切れ雲あり

METAR: KBTL 211653Z 35004KT 10SM BKN014 BKN022 BKN029 26/22 A2998 RMK AO2 SLP144 T02610217

時間: 13:52 (17:52 UTC)

予報

当レポートは32分前の17:20(UTC)に作成
予報は21日の 18時(UTC)から 22日の 18時(UTC)まで有効
の風 4kt
視程: 10km
高度1400ftの千切れ雲あり
高度2200ftの千切れ雲あり
高度2900ftの千切れ雲あり
21日の 1900時(UTC)から
北/北東の風 7kt
視程: 10km
高度5000ftの千切れ雲あり
近辺でにわか雨
21日の 2200時(UTC)から
北/北東の風 8kt
視程: 10km
高度7000ftの千切れ雲あり, 積乱雲.
近辺で激しい雷雨
22日の 0100時(UTC)から
の風 8kt
視程: 10km
高度15000ftの雲は散在している
高度25000ftの雲は散在している
22日の 1400時(UTC)から
の風 12kt
視程: 10km
高度14000ftの千切れ雲あり

TAF: KBTL 211720Z 2118/2218 35004KT P6SM BKN014 BKN022 BKN029 FM211900 03007KT P6SM VCSH BKN050 FM212200 02008KT P6SM VCTS BKN070CB FM220100 01008KT P6SM SCT150 SCT250 FM221400 35012KT P6SM BKN140

4,000以上の空港の気象観測と天気予報(METAR報とTAF報)

利用可能な観測所は地図上に黄色い丸と赤い丸で示す。

丸の上にカーソルを重ねると観測所名を参照できる。

次にクリックすると気象観測と天気予報を参照できる。

マップの切り替え:黒色「×」印の緑ボタンをクリックして拡大、「-」印の緑ボタンをクリックして縮小、緑色の三角印をクリックして隣りの地図に切り替え


METAR-TAF: